createdAt,value
2019-05-23T00:01:53.703Z,10.33
2019-05-23T00:04:29.966Z,9.60
2019-05-23T00:07:00.066Z,9.83
2019-05-23T00:09:29.175Z,9.00
2019-05-23T00:12:02.059Z,10.80
2019-05-23T00:14:38.536Z,9.65
2019-05-23T00:17:10.324Z,10.10
2019-05-23T00:19:40.671Z,10.15
2019-05-23T00:22:11.524Z,11.12
2019-05-23T00:24:42.093Z,10.25
2019-05-23T00:27:10.314Z,10.50
2019-05-23T00:29:40.679Z,10.25
2019-05-23T00:32:16.510Z,11.10
2019-05-23T00:34:45.360Z,11.73
2019-05-23T00:37:20.125Z,12.03
2019-05-23T00:39:49.451Z,12.50
2019-05-23T00:42:19.771Z,11.33
2019-05-23T00:44:48.912Z,11.65
2019-05-23T00:47:19.847Z,11.38
2019-05-23T00:49:49.549Z,12.00
2019-05-23T00:52:18.677Z,11.83
2019-05-23T00:54:48.050Z,12.75
2019-05-23T00:57:17.615Z,11.30
2019-05-23T00:59:48.208Z,12.05
2019-05-23T01:02:17.041Z,11.37
2019-05-23T01:04:46.016Z,10.80
2019-05-23T01:07:14.659Z,10.73
2019-05-23T01:09:44.386Z,11.00
2019-05-23T01:12:14.171Z,12.10
2019-05-23T01:14:43.627Z,9.95
2019-05-23T01:17:11.895Z,10.40
2019-05-23T01:19:41.200Z,11.10
2019-05-23T01:22:14.234Z,10.43
2019-05-23T01:24:47.298Z,10.80
2019-05-23T01:27:17.190Z,11.20
2019-05-23T01:29:49.606Z,10.95
2019-05-23T01:32:33.669Z,10.60
2019-05-23T01:35:04.510Z,10.15
2019-05-23T01:37:34.702Z,9.95
2019-05-23T01:40:05.702Z,10.18
2019-05-23T01:42:34.156Z,11.50
2019-05-23T01:45:03.398Z,11.25
2019-05-23T01:47:32.388Z,10.72
2019-05-23T01:50:01.308Z,10.63
2019-05-23T01:52:30.348Z,11.33
2019-05-23T01:54:59.881Z,10.43
2019-05-23T01:57:49.176Z,11.53
2019-05-23T02:00:21.191Z,11.20
2019-05-23T02:02:50.924Z,11.53
2019-05-23T02:05:20.271Z,11.00
2019-05-23T02:07:48.807Z,11.15
2019-05-23T02:10:17.793Z,10.95
2019-05-23T02:12:46.315Z,10.18
2019-05-23T02:15:24.570Z,11.30
2019-05-23T02:17:54.507Z,11.85
2019-05-23T02:20:24.504Z,11.93
2019-05-23T02:22:54.833Z,10.80
2019-05-23T02:25:24.146Z,11.95
2019-05-23T02:28:12.416Z,11.83
2019-05-23T02:30:40.861Z,11.13
2019-05-23T02:33:10.147Z,10.90
2019-05-23T02:35:39.154Z,11.97
2019-05-23T02:38:12.351Z,11.70
2019-05-23T02:40:45.990Z,10.47
2019-05-23T02:43:26.579Z,11.97
2019-05-23T02:45:57.760Z,12.30
2019-05-23T02:48:48.934Z,13.00
2019-05-23T02:51:39.344Z,11.57
2019-05-23T02:54:12.105Z,11.57
2019-05-23T02:56:41.422Z,11.00
2019-05-23T02:59:28.417Z,11.45
2019-05-23T03:02:30.536Z,12.00
2019-05-23T03:05:00.486Z,11.95
2019-05-23T03:07:33.072Z,11.80
2019-05-23T03:10:02.351Z,11.55
2019-05-23T03:12:31.448Z,12.33
2019-05-23T03:15:02.830Z,13.28
2019-05-23T03:17:34.655Z,12.47
2019-05-23T03:20:06.056Z,11.22
2019-05-23T03:22:41.228Z,12.35
2019-05-23T03:25:31.476Z,11.83
2019-05-23T03:28:02.877Z,12.53
2019-05-23T03:30:33.550Z,13.08
2019-05-23T03:33:06.499Z,12.37
2019-05-23T03:35:37.460Z,11.80
2019-05-23T03:38:06.783Z,12.60
2019-05-23T03:40:36.447Z,11.63
2019-05-23T03:43:07.930Z,13.22
2019-05-23T03:45:39.646Z,13.80
2019-05-23T03:48:08.892Z,12.05
2019-05-23T03:50:39.262Z,12.63
2019-05-23T03:53:10.052Z,11.43
2019-05-23T03:55:39.408Z,11.70
2019-05-23T03:58:10.036Z,12.10
2019-05-23T04:00:39.920Z,12.20
2019-05-23T04:03:09.684Z,12.73
2019-05-23T04:05:38.801Z,11.87
2019-05-23T04:08:07.340Z,12.20
2019-05-23T04:10:36.681Z,11.78
2019-05-23T04:13:06.811Z,12.00
2019-05-23T04:15:35.289Z,12.57
2019-05-23T04:18:04.034Z,12.45
2019-05-23T04:20:33.263Z,12.65
2019-05-23T04:23:02.259Z,12.98
2019-05-23T04:25:31.177Z,12.18
2019-05-23T04:28:00.225Z,11.38
2019-05-23T04:30:29.160Z,10.90
2019-05-23T04:32:58.182Z,11.40
2019-05-23T04:35:48.113Z,12.53
2019-05-23T04:38:17.093Z,10.90
2019-05-23T04:40:45.668Z,10.80
2019-05-23T04:43:14.224Z,10.85
2019-05-23T04:45:42.492Z,9.73
2019-05-23T04:48:11.553Z,10.90
2019-05-23T04:50:40.558Z,10.32
2019-05-23T04:53:09.647Z,10.43
2019-05-23T04:55:42.384Z,11.20
2019-05-23T04:58:11.256Z,11.22
2019-05-23T05:00:40.104Z,10.13
2019-05-23T05:03:28.236Z,11.20
2019-05-23T05:05:56.846Z,10.63
2019-05-23T05:08:25.637Z,10.63
2019-05-23T05:10:55.597Z,11.28
2019-05-23T05:13:24.495Z,11.83
2019-05-23T05:15:53.196Z,11.57
2019-05-23T05:18:22.041Z,10.15
2019-05-23T05:20:50.449Z,11.13
2019-05-23T05:23:18.690Z,10.67
2019-05-23T05:25:47.424Z,11.25
2019-05-23T05:28:16.003Z,11.13
2019-05-23T05:30:44.549Z,11.07
2019-05-23T05:33:12.707Z,11.53
2019-05-23T05:35:41.264Z,10.87
2019-05-23T05:38:09.524Z,9.50
2019-05-23T05:40:37.868Z,11.63
2019-05-23T05:43:06.196Z,9.37
2019-05-23T05:45:34.462Z,9.53
2019-05-23T05:48:22.066Z,9.63
2019-05-23T05:50:51.616Z,9.33
2019-05-23T05:53:20.611Z,9.03
2019-05-23T05:55:49.282Z,9.70
2019-05-23T05:58:17.589Z,9.47
2019-05-23T06:00:50.737Z,9.30
2019-05-23T06:03:19.235Z,9.40
2019-05-23T06:05:58.478Z,9.27
2019-05-23T06:11:16.210Z,8.57
2019-05-23T06:13:44.605Z,9.47
2019-05-23T06:16:12.954Z,9.03
2019-05-23T06:18:41.531Z,9.40
2019-05-23T06:21:11.731Z,8.37
2019-05-23T06:23:42.159Z,8.63
2019-05-23T06:26:10.467Z,9.03
2019-05-23T06:28:40.528Z,8.73
2019-05-23T06:31:09.919Z,8.07
2019-05-23T06:33:38.425Z,9.70
2019-05-23T06:36:06.829Z,7.67
2019-05-23T06:38:35.786Z,8.80
2019-05-23T06:41:05.887Z,8.80
2019-05-23T06:43:36.353Z,7.90
2019-05-23T06:46:05.308Z,7.67
2019-05-23T06:48:34.538Z,8.93
2019-05-23T06:51:02.799Z,8.53
2019-05-23T06:53:31.352Z,8.00
2019-05-23T06:55:59.938Z,6.60
2019-05-23T06:58:29.048Z,6.40
2019-05-23T07:00:57.804Z,5.40
2019-05-23T07:03:46.846Z,5.30
2019-05-23T07:06:17.004Z,4.53
2019-05-23T07:08:45.225Z,4.40
2019-05-23T07:11:13.513Z,5.30
2019-05-23T07:13:42.195Z,5.10
2019-05-23T07:16:10.454Z,4.50
2019-05-23T07:18:39.794Z,5.23
2019-05-23T07:21:08.920Z,4.73
2019-05-23T07:23:37.542Z,5.17
2019-05-23T07:26:05.764Z,6.60
2019-05-23T07:28:34.139Z,5.00
2019-05-23T07:31:02.643Z,5.93
2019-05-23T07:33:31.321Z,5.60
2019-05-23T07:36:00.169Z,6.40
2019-05-23T07:38:28.356Z,5.27
2019-05-23T07:40:57.451Z,5.10
2019-05-23T07:43:26.099Z,6.53
2019-05-23T07:45:58.825Z,5.27
2019-05-23T07:48:27.900Z,4.90
2019-05-23T07:50:56.786Z,4.00
2019-05-23T07:53:27.382Z,3.43
2019-05-23T07:55:57.863Z,3.47
2019-05-23T07:58:26.541Z,4.03
2019-05-23T08:01:02.613Z,3.03
2019-05-23T08:03:32.869Z,3.90
2019-05-23T08:06:01.767Z,3.90
2019-05-23T08:08:30.407Z,2.90
2019-05-23T08:10:58.576Z,3.40
2019-05-23T08:13:28.230Z,4.00
2019-05-23T08:15:57.094Z,4.07
2019-05-23T08:18:26.049Z,3.90
2019-05-23T08:20:55.120Z,3.00
2019-05-23T08:23:23.620Z,2.13
2019-05-23T08:25:52.699Z,5.60
2019-05-23T08:28:21.343Z,3.90
2019-05-23T08:30:49.503Z,3.60
2019-05-23T08:33:18.686Z,4.23
2019-05-23T08:35:47.240Z,4.83
2019-05-23T08:38:15.594Z,4.67
2019-05-23T08:40:44.841Z,5.90
2019-05-23T08:43:13.695Z,5.60
2019-05-23T08:45:42.749Z,5.23
2019-05-23T08:48:11.975Z,6.03
2019-05-23T08:50:40.997Z,6.77
2019-05-23T08:53:09.222Z,7.60
2019-05-23T08:55:37.998Z,8.20
2019-05-23T08:58:06.682Z,7.97
2019-05-23T09:00:36.525Z,7.73
2019-05-23T09:03:05.534Z,7.90
2019-05-23T09:05:34.968Z,8.80
2019-05-23T09:08:06.994Z,9.13
2019-05-23T09:10:36.184Z,9.43
2019-05-23T09:13:05.760Z,8.77
2019-05-23T09:15:34.779Z,10.73
2019-05-23T09:18:04.772Z,9.67
2019-05-23T09:20:33.893Z,9.67
2019-05-23T09:23:02.221Z,7.93
2019-05-23T09:25:31.101Z,8.70
2019-05-23T09:27:59.815Z,9.70
2019-05-23T09:30:29.805Z,8.77
2019-05-23T09:32:58.595Z,7.03
2019-05-23T09:35:27.956Z,11.00
2019-05-23T09:37:56.197Z,10.20
2019-05-23T09:40:24.465Z,9.50
2019-05-23T09:42:52.767Z,8.57
2019-05-23T09:45:21.399Z,7.43
2019-05-23T09:47:51.276Z,9.63
2019-05-23T09:50:21.215Z,12.30
2019-05-23T09:52:49.395Z,10.37
2019-05-23T09:55:18.021Z,11.23
2019-05-23T09:57:46.201Z,9.60
2019-05-23T10:00:16.234Z,10.83
2019-05-23T10:02:44.533Z,8.97
2019-05-23T10:05:13.067Z,8.23
2019-05-23T10:07:41.393Z,8.77
2019-05-23T10:10:10.602Z,8.37
2019-05-23T10:12:38.836Z,9.33
2019-05-23T10:15:10.244Z,10.50
2019-05-23T10:17:38.548Z,10.27
2019-05-23T10:20:07.303Z,10.50
2019-05-23T10:22:35.618Z,8.93
2019-05-23T10:25:05.348Z,6.80
2019-05-23T10:27:33.510Z,9.50
2019-05-23T10:30:01.791Z,9.53
2019-05-23T10:32:30.093Z,9.93
2019-05-23T10:34:58.349Z,11.10
2019-05-23T10:37:27.065Z,10.90
2019-05-23T10:39:55.795Z,10.60
2019-05-23T10:42:25.608Z,11.07
2019-05-23T10:44:54.038Z,12.03
2019-05-23T10:47:22.591Z,11.10
2019-05-23T10:49:51.046Z,10.20
2019-05-23T10:52:19.605Z,9.30
2019-05-23T10:54:47.912Z,9.20
2019-05-23T10:57:16.163Z,9.20
2019-05-23T10:59:44.326Z,10.17
2019-05-23T11:02:12.596Z,9.40
2019-05-23T11:04:40.782Z,9.10
2019-05-23T11:07:10.563Z,8.73
2019-05-23T11:09:39.670Z,10.87
2019-05-23T11:12:10.684Z,10.03
2019-05-23T11:14:39.283Z,9.83
2019-05-23T11:17:07.688Z,9.70
2019-05-23T11:19:36.124Z,12.03
2019-05-23T11:22:06.184Z,8.10
2019-05-23T11:24:34.484Z,7.73
2019-05-23T11:27:03.732Z,9.40
2019-05-23T11:29:31.924Z,8.93
2019-05-23T11:32:01.342Z,9.43
2019-05-23T11:34:29.761Z,9.20
2019-05-23T11:36:58.450Z,11.20
2019-05-23T11:39:27.720Z,10.93
2019-05-23T11:41:56.006Z,11.00
2019-05-23T11:44:24.311Z,10.73
2019-05-23T11:46:52.575Z,10.50
2019-05-23T11:49:20.875Z,10.00
2019-05-23T11:51:49.296Z,9.50
2019-05-23T11:54:18.373Z,10.50
2019-05-23T11:56:46.861Z,10.10
2019-05-23T11:59:15.124Z,10.20
2019-05-23T12:01:45.025Z,9.63
2019-05-23T12:04:17.501Z,8.83
2019-05-23T12:06:56.860Z,8.57
2019-05-23T12:09:25.274Z,7.53
2019-05-23T12:11:53.658Z,7.20
2019-05-23T12:14:22.008Z,8.03
2019-05-23T12:16:50.610Z,8.63
2019-05-23T12:19:18.965Z,8.90
2019-05-23T12:21:47.253Z,8.13
2019-05-23T12:24:15.926Z,6.77
2019-05-23T12:26:44.108Z,6.87
2019-05-23T12:29:12.331Z,7.27
2019-05-23T12:31:40.636Z,7.00
2019-05-23T12:34:08.988Z,7.53
2019-05-23T12:36:37.572Z,7.80
2019-05-23T12:39:08.502Z,6.70
2019-05-23T12:41:36.876Z,5.30
2019-05-23T12:44:06.502Z,5.63
2019-05-23T12:46:34.730Z,5.90
2019-05-23T12:49:13.726Z,5.30
2019-05-23T12:51:43.514Z,5.83
2019-05-23T12:54:11.822Z,5.80
2019-05-23T12:56:40.359Z,5.13
2019-05-23T12:59:10.710Z,6.27
2019-05-23T13:01:40.587Z,5.10
2019-05-23T13:04:10.300Z,5.20
2019-05-23T13:06:39.117Z,5.00
2019-05-23T13:09:08.552Z,5.23
2019-05-23T13:11:36.982Z,4.77
2019-05-23T13:14:05.910Z,5.30
2019-05-23T13:16:34.159Z,5.50
2019-05-23T13:19:02.439Z,5.50
2019-05-23T13:21:30.638Z,5.60
2019-05-23T13:23:58.900Z,5.47
2019-05-23T13:26:27.568Z,4.20
2019-05-23T13:28:55.748Z,4.73
2019-05-23T13:31:23.981Z,4.30
2019-05-23T13:33:52.305Z,4.27
2019-05-23T13:36:20.523Z,4.60
2019-05-23T13:38:48.904Z,4.13
2019-05-23T13:41:17.133Z,4.80
2019-05-23T13:43:45.404Z,4.53
2019-05-23T13:46:13.690Z,4.00
2019-05-23T13:48:41.960Z,4.37
2019-05-23T13:51:10.208Z,3.97
2019-05-23T13:53:38.522Z,4.10
2019-05-23T13:56:06.755Z,4.60
2019-05-23T13:58:35.391Z,4.37
2019-05-23T14:01:08.558Z,4.40
2019-05-23T14:03:34.004Z,4.57
2019-05-23T14:06:02.504Z,5.03
2019-05-23T14:08:30.723Z,3.87
2019-05-23T14:10:59.203Z,4.10
2019-05-23T14:13:28.215Z,3.90
2019-05-23T14:15:57.456Z,4.55
2019-05-23T14:18:27.887Z,4.17
2019-05-23T14:20:56.431Z,4.27
2019-05-23T14:23:28.912Z,4.83
2019-05-23T14:25:57.691Z,4.40
2019-05-23T14:28:26.420Z,4.60
2019-05-23T14:31:08.418Z,4.70
2019-05-23T14:33:40.993Z,4.80
2019-05-23T14:36:10.843Z,4.90
2019-05-23T14:38:39.145Z,4.63
2019-05-23T14:41:07.518Z,4.50
2019-05-23T14:43:36.161Z,4.40
2019-05-23T14:46:09.316Z,4.90
2019-05-23T14:48:39.276Z,5.20
2019-05-23T14:51:25.103Z,4.87
2019-05-23T14:54:00.610Z,4.73
2019-05-23T14:56:30.539Z,4.90
2019-05-23T14:58:58.814Z,5.33
2019-05-23T15:01:28.720Z,5.63
2019-05-23T15:03:57.093Z,5.80
2019-05-23T15:06:25.396Z,5.90
2019-05-23T15:08:53.901Z,6.30
2019-05-23T15:11:22.222Z,5.87
2019-05-23T15:13:50.699Z,6.10
2019-05-23T15:16:19.169Z,5.97
2019-05-23T15:18:47.430Z,5.30
2019-05-23T15:21:15.828Z,5.30
2019-05-23T15:23:44.163Z,5.13
2019-05-23T15:26:22.415Z,5.20
2019-05-23T15:28:42.371Z,4.73
2019-05-23T15:31:10.906Z,4.87
2019-05-23T15:33:39.148Z,5.80
2019-05-23T15:36:07.794Z,5.53
2019-05-23T15:38:35.988Z,6.10
2019-05-23T15:41:04.315Z,6.30
2019-05-23T15:43:32.550Z,5.50
2019-05-23T15:46:01.057Z,5.90
2019-05-23T15:48:29.212Z,5.60
2019-05-23T15:50:57.446Z,5.87
2019-05-23T15:53:45.434Z,5.90
2019-05-23T15:56:27.669Z,6.00
2019-05-23T15:58:47.026Z,6.40
2019-05-23T16:01:16.878Z,6.17
2019-05-23T16:03:50.470Z,5.45
2019-05-23T16:06:21.020Z,5.10
2019-05-23T16:08:50.058Z,4.70
2019-05-23T16:11:18.606Z,5.20
2019-05-23T16:13:46.835Z,5.40
2019-05-23T16:16:15.098Z,5.70
2019-05-23T16:18:44.452Z,5.67
2019-05-23T16:21:13.614Z,5.00
2019-05-23T16:23:42.429Z,5.22
2019-05-23T16:26:11.851Z,5.45
2019-05-23T16:28:40.780Z,4.83
2019-05-23T16:31:10.203Z,5.83
2019-05-23T16:33:39.081Z,5.95
2019-05-23T16:36:07.839Z,5.20
2019-05-23T16:38:36.885Z,5.45
2019-05-23T16:41:05.852Z,5.90
2019-05-23T16:43:34.230Z,4.87
2019-05-23T16:46:02.511Z,6.47
2019-05-23T16:48:31.026Z,6.10
2019-05-23T16:50:59.352Z,6.40
2019-05-23T16:53:28.707Z,6.60
2019-05-23T16:55:58.580Z,6.23
2019-05-23T16:58:31.381Z,6.30
2019-05-23T17:01:04.434Z,7.53
2019-05-23T17:03:49.727Z,8.47
2019-05-23T17:06:19.936Z,7.00
2019-05-23T17:09:07.542Z,7.80
2019-05-23T17:11:37.775Z,7.17
2019-05-23T17:14:13.086Z,6.97
2019-05-23T17:17:36.492Z,7.33
2019-05-23T17:19:50.945Z,7.23
2019-05-23T17:22:40.090Z,6.97
2019-05-23T17:25:41.567Z,6.93
2019-05-23T17:31:21.596Z,7.00
2019-05-23T17:33:50.915Z,7.07
2019-05-23T17:36:19.935Z,18.70
2019-05-23T17:38:48.560Z,8.37
2019-05-23T17:41:37.855Z,9.73
2019-05-23T17:44:06.567Z,8.87
2019-05-23T17:46:35.425Z,7.90
2019-05-23T17:49:04.109Z,9.77
2019-05-23T17:51:32.752Z,8.80
2019-05-23T17:54:22.608Z,8.20
2019-05-23T17:56:51.165Z,9.03
2019-05-23T17:59:19.819Z,9.20
2019-05-23T18:01:48.618Z,8.60
2019-05-23T18:04:17.294Z,8.50
2019-05-23T18:06:46.027Z,8.57
2019-05-23T18:09:14.870Z,8.17
2019-05-23T18:11:43.502Z,7.70
2019-05-23T18:14:12.171Z,8.40
2019-05-23T18:16:42.053Z,8.10
2019-05-23T18:19:11.137Z,10.30
2019-05-23T18:21:39.970Z,23.60
2019-05-23T18:24:10.638Z,43.13
2019-05-23T18:26:39.480Z,36.87
2019-05-23T18:29:08.630Z,18.30
2019-05-23T18:31:38.336Z,6.80
2019-05-23T18:34:09.228Z,9.60
2019-05-23T18:36:38.533Z,7.67
2019-05-23T18:39:11.994Z,8.00
2019-05-23T18:41:40.754Z,7.50
2019-05-23T18:44:09.138Z,7.63
2019-05-23T18:46:41.972Z,6.40
2019-05-23T18:49:12.490Z,6.37
2019-05-23T18:51:41.109Z,5.93
2019-05-23T18:54:09.498Z,6.03
2019-05-23T18:56:38.148Z,6.63
2019-05-23T18:59:07.573Z,6.87
2019-05-23T19:01:36.173Z,6.17
2019-05-23T19:04:05.725Z,6.77
2019-05-23T19:06:34.811Z,6.50
2019-05-23T19:09:06.645Z,5.70
2019-05-23T19:11:34.906Z,6.33
2019-05-23T19:14:03.137Z,5.93
2019-05-23T19:16:31.545Z,6.67
2019-05-23T19:19:00.205Z,6.63
2019-05-23T19:21:29.056Z,6.77
2019-05-23T19:23:57.222Z,6.13
2019-05-23T19:26:27.155Z,5.27
2019-05-23T19:28:55.827Z,5.10
2019-05-23T19:31:24.105Z,4.47
2019-05-23T19:33:52.764Z,4.53
2019-05-23T19:36:22.862Z,5.43
2019-05-23T19:38:51.109Z,4.70
2019-05-23T19:41:28.356Z,5.03
2019-05-23T19:43:49.507Z,5.83
2019-05-23T19:46:17.755Z,4.50
2019-05-23T19:48:46.900Z,5.10
2019-05-23T19:51:16.575Z,4.90
2019-05-23T19:53:45.028Z,5.10
2019-05-23T19:56:13.443Z,4.33
2019-05-23T19:58:42.034Z,5.17
2019-05-23T20:01:10.652Z,8.87
2019-05-23T20:03:38.988Z,22.70
2019-05-23T20:06:08.181Z,6.27
2019-05-23T20:08:36.332Z,5.60
2019-05-23T20:11:05.051Z,5.23
2019-05-23T20:13:33.300Z,5.33
2019-05-23T20:16:02.463Z,4.87
2019-05-23T20:18:30.945Z,4.97
2019-05-23T20:20:59.408Z,5.03
2019-05-23T20:23:27.646Z,5.07
2019-05-23T20:25:56.275Z,5.10
2019-05-23T20:28:24.514Z,5.93
2019-05-23T20:30:53.353Z,4.97
2019-05-23T20:33:21.699Z,4.83
2019-05-23T20:35:49.975Z,5.47
2019-05-23T20:38:19.158Z,5.63
2019-05-23T20:40:47.396Z,5.57
2019-05-23T20:43:15.939Z,6.40
2019-05-23T20:45:44.211Z,5.93
2019-05-23T20:48:12.542Z,7.73
2019-05-23T20:50:40.835Z,6.67
2019-05-23T20:53:09.113Z,6.87
2019-05-23T20:55:37.348Z,6.10
2019-05-23T20:58:05.778Z,7.37
2019-05-23T21:00:36.042Z,9.30
2019-05-23T21:03:04.746Z,7.37
2019-05-23T21:05:33.066Z,8.40
2019-05-23T21:08:01.802Z,8.80
2019-05-23T21:10:43.822Z,8.77
2019-05-23T21:13:12.095Z,9.60
2019-05-23T21:15:41.019Z,12.83
2019-05-23T21:18:09.723Z,9.77
2019-05-23T21:20:38.127Z,26.23
2019-05-23T21:23:06.400Z,11.50
2019-05-23T21:25:35.905Z,40.10
2019-05-23T21:28:04.271Z,38.27
2019-05-23T21:30:32.633Z,12.00
2019-05-23T21:33:00.855Z,12.57
2019-05-23T21:35:29.017Z,11.00
2019-05-23T21:37:57.288Z,10.90
2019-05-23T21:40:35.942Z,11.13
2019-05-23T21:43:04.589Z,11.23
2019-05-23T21:45:33.291Z,12.40
2019-05-23T21:48:01.538Z,13.40
2019-05-23T21:50:29.891Z,12.27
2019-05-23T21:52:58.205Z,12.40
2019-05-23T21:55:36.203Z,10.97
2019-05-23T21:58:05.065Z,12.57
2019-05-23T22:00:39.100Z,13.00
2019-05-23T22:03:07.617Z,12.60
2019-05-23T22:05:36.307Z,12.70
2019-05-23T22:08:04.596Z,13.77
2019-05-23T22:10:32.836Z,12.30
2019-05-23T22:13:04.458Z,12.27
2019-05-23T22:15:35.650Z,11.23
2019-05-23T22:18:04.650Z,12.10
2019-05-23T22:20:32.882Z,12.83
2019-05-23T22:23:01.120Z,11.70
2019-05-23T22:25:32.838Z,11.50
2019-05-23T22:28:01.116Z,13.10
2019-05-23T22:30:29.353Z,12.57
2019-05-23T22:32:57.696Z,11.63
2019-05-23T22:35:25.933Z,11.37
2019-05-23T22:37:54.211Z,12.07
2019-05-23T22:40:22.719Z,11.20
2019-05-23T22:42:51.084Z,12.80
2019-05-23T22:45:21.052Z,12.00
2019-05-23T22:47:49.653Z,9.87
2019-05-23T22:50:18.494Z,11.25
2019-05-23T22:52:46.721Z,12.40
2019-05-23T22:55:15.087Z,12.20
2019-05-23T22:57:43.363Z,12.40
2019-05-23T23:00:13.725Z,13.37
2019-05-23T23:02:45.771Z,11.20
2019-05-23T23:05:11.893Z,14.40
2019-05-23T23:07:40.124Z,11.47
2019-05-23T23:10:08.481Z,12.50
2019-05-23T23:12:36.653Z,11.63
2019-05-23T23:15:08.574Z,11.57
2019-05-23T23:17:36.826Z,11.80
2019-05-23T23:20:06.793Z,12.40
2019-05-23T23:22:35.394Z,12.27
2019-05-23T23:25:04.170Z,11.40
2019-05-23T23:27:32.415Z,12.03
2019-05-23T23:30:00.605Z,9.93
2019-05-23T23:32:28.839Z,13.87
2019-05-23T23:34:57.035Z,10.77
2019-05-23T23:37:25.219Z,10.30
2019-05-23T23:39:53.479Z,11.10
2019-05-23T23:42:21.827Z,11.40
2019-05-23T23:44:49.509Z,10.77
2019-05-23T23:47:35.463Z,10.33
2019-05-23T23:50:22.976Z,9.30
2019-05-23T23:53:09.300Z,10.77
2019-05-23T23:55:55.183Z,9.43
2019-05-23T23:58:22.826Z,9.33
